createdAt,value
2018-07-10T00:00:07.346Z,1.70
2018-07-10T00:03:19.709Z,1.80
2018-07-10T00:08:33.599Z,1.73
2018-07-10T00:11:26.440Z,2.03
2018-07-10T00:13:54.333Z,1.73
2018-07-10T00:16:22.507Z,2.10
2018-07-10T00:18:50.393Z,1.93
2018-07-10T00:21:18.646Z,2.20
2018-07-10T00:23:47.017Z,2.07
2018-07-10T00:26:14.737Z,2.20
2018-07-10T00:28:42.966Z,2.07
2018-07-10T00:31:10.714Z,2.00
2018-07-10T00:33:38.490Z,2.00
2018-07-10T00:36:06.218Z,2.50
2018-07-10T00:38:51.386Z,2.17
2018-07-10T00:41:25.775Z,2.23
2018-07-10T00:43:53.866Z,2.10
2018-07-10T00:46:22.374Z,2.17
2018-07-10T00:48:50.390Z,1.93
2018-07-10T00:51:18.563Z,2.13
2018-07-10T00:53:46.234Z,2.10
2018-07-10T00:56:14.146Z,2.40
2018-07-10T00:58:41.834Z,2.33
2018-07-10T01:01:09.555Z,2.40
2018-07-10T01:03:37.391Z,2.23
2018-07-10T01:06:05.029Z,2.13
2018-07-10T01:08:32.779Z,2.50
2018-07-10T01:11:08.019Z,2.43
2018-07-10T01:13:35.942Z,2.10
2018-07-10T01:16:03.783Z,2.60
2018-07-10T01:18:41.275Z,2.20
2018-07-10T01:21:15.226Z,2.27
2018-07-10T01:23:43.098Z,2.27
2018-07-10T01:26:12.653Z,2.00
2018-07-10T01:28:41.175Z,2.10
2018-07-10T01:31:08.911Z,2.13
2018-07-10T01:33:36.629Z,2.20
2018-07-10T01:36:06.026Z,2.00
2018-07-10T01:38:34.809Z,2.20
2018-07-10T01:41:02.562Z,2.23
2018-07-10T01:43:30.522Z,2.63
2018-07-10T01:45:58.240Z,2.23
2018-07-10T01:48:26.014Z,1.97
2018-07-10T01:50:53.998Z,1.80
2018-07-10T01:53:21.893Z,2.17
2018-07-10T01:55:49.678Z,2.03
2018-07-10T01:58:18.097Z,2.10
2018-07-10T02:00:46.394Z,2.37
2018-07-10T02:03:14.150Z,2.23
2018-07-10T02:05:42.340Z,2.10
2018-07-10T02:08:10.194Z,2.00
2018-07-10T02:10:37.885Z,2.17
2018-07-10T02:13:05.736Z,2.50
2018-07-10T02:15:33.647Z,2.60
2018-07-10T02:18:01.374Z,2.20
2018-07-10T02:20:53.182Z,2.30
2018-07-10T02:23:21.643Z,2.23
2018-07-10T02:25:49.850Z,2.07
2018-07-10T02:28:18.035Z,2.30
2018-07-10T02:30:46.076Z,2.47
2018-07-10T02:33:13.818Z,2.50
2018-07-10T02:35:41.651Z,2.10
2018-07-10T02:38:09.670Z,2.13
2018-07-10T02:40:37.452Z,2.37
2018-07-10T02:43:05.289Z,2.30
2018-07-10T02:45:33.295Z,2.10
2018-07-10T02:48:01.021Z,2.90
2018-07-10T02:50:30.301Z,3.20
2018-07-10T02:52:58.340Z,3.07
2018-07-10T02:55:26.071Z,2.13
2018-07-10T02:57:53.787Z,2.67
2018-07-10T03:00:21.659Z,2.07
2018-07-10T03:02:50.374Z,2.60
2018-07-10T03:05:19.603Z,2.43
2018-07-10T03:07:47.676Z,2.87
2018-07-10T03:10:34.739Z,2.30
2018-07-10T03:13:02.497Z,2.20
2018-07-10T03:15:30.592Z,2.30
2018-07-10T03:17:59.069Z,2.63
2018-07-10T03:20:26.999Z,2.43
2018-07-10T03:22:54.707Z,2.50
2018-07-10T03:25:22.430Z,2.73
2018-07-10T03:27:50.420Z,2.50
2018-07-10T03:30:18.123Z,2.57
2018-07-10T03:32:45.926Z,2.30
2018-07-10T03:35:13.910Z,2.20
2018-07-10T03:37:42.122Z,2.40
2018-07-10T03:40:10.326Z,2.50
2018-07-10T03:42:38.054Z,2.30
2018-07-10T03:45:05.779Z,2.53
2018-07-10T03:47:33.510Z,2.53
2018-07-10T03:50:01.296Z,2.60
2018-07-10T03:52:34.405Z,2.43
2018-07-10T03:55:06.678Z,2.57
2018-07-10T03:57:34.520Z,2.70
2018-07-10T04:00:06.738Z,2.90
2018-07-10T04:02:35.364Z,2.70
2018-07-10T04:05:03.281Z,3.10
2018-07-10T04:07:32.082Z,3.10
2018-07-10T04:12:49.141Z,2.70
2018-07-10T04:15:17.454Z,2.60
2018-07-10T04:18:03.248Z,2.90
2018-07-10T04:20:43.367Z,2.87
2018-07-10T04:23:11.050Z,2.77
2018-07-10T04:25:38.839Z,2.43
2018-07-10T04:28:14.243Z,3.00
2018-07-10T04:30:55.019Z,2.70
2018-07-10T04:33:22.729Z,2.77
2018-07-10T04:35:50.834Z,2.40
2018-07-10T04:38:23.751Z,2.63
2018-07-10T04:40:51.482Z,2.17
2018-07-10T04:43:20.457Z,2.70
2018-07-10T04:45:55.082Z,2.47
2018-07-10T04:48:44.318Z,2.70
2018-07-10T04:51:33.984Z,2.70
2018-07-10T04:54:44.748Z,2.57
2018-07-10T04:57:16.220Z,2.87
2018-07-10T04:59:44.374Z,2.40
2018-07-10T05:02:13.391Z,2.30
2018-07-10T05:04:41.177Z,2.50
2018-07-10T05:07:10.039Z,2.33
2018-07-10T05:09:38.435Z,2.33
2018-07-10T05:12:07.278Z,2.70
2018-07-10T05:14:36.715Z,2.80
2018-07-10T05:17:04.417Z,2.77
2018-07-10T05:19:32.158Z,2.90
2018-07-10T05:21:59.845Z,2.53
2018-07-10T05:24:27.640Z,2.33
2018-07-10T05:26:56.377Z,2.73
2018-07-10T05:29:24.423Z,2.93
2018-07-10T05:31:52.518Z,2.97
2018-07-10T05:34:21.019Z,2.60
2018-07-10T05:36:49.485Z,2.60
2018-07-10T05:39:17.242Z,2.23
2018-07-10T05:41:46.642Z,3.17
2018-07-10T05:44:19.540Z,3.10
2018-07-10T05:46:47.635Z,2.60
2018-07-10T05:49:16.054Z,2.70
2018-07-10T05:51:47.662Z,3.90
2018-07-10T05:54:15.361Z,3.20
2018-07-10T05:56:43.147Z,3.73
2018-07-10T05:59:11.328Z,3.07
2018-07-10T06:01:39.961Z,3.00
2018-07-10T06:04:09.866Z,2.60
2018-07-10T06:06:37.694Z,2.63
2018-07-10T06:09:06.189Z,2.70
2018-07-10T06:11:35.591Z,3.00
2018-07-10T06:14:03.434Z,2.40
2018-07-10T06:16:31.392Z,2.57
2018-07-10T06:18:59.106Z,2.40
2018-07-10T06:21:37.663Z,2.33
2018-07-10T06:24:14.129Z,2.77
2018-07-10T06:26:42.779Z,2.63
2018-07-10T06:29:16.946Z,2.80
2018-07-10T06:31:51.355Z,2.57
2018-07-10T06:34:26.450Z,2.97
2018-07-10T06:37:04.676Z,2.37
2018-07-10T06:39:32.362Z,2.53
2018-07-10T06:42:03.618Z,2.30
2018-07-10T06:44:34.454Z,2.43
2018-07-10T06:47:03.893Z,2.77
2018-07-10T06:49:35.508Z,4.03
2018-07-10T06:52:10.452Z,2.53
2018-07-10T06:55:08.156Z,2.77
2018-07-10T06:57:48.938Z,2.50
2018-07-10T07:00:16.750Z,3.13
2018-07-10T07:02:44.450Z,2.60
2018-07-10T07:05:12.150Z,2.60
2018-07-10T07:07:40.462Z,2.20
2018-07-10T07:10:34.019Z,2.60
2018-07-10T07:13:01.968Z,3.03
2018-07-10T07:15:29.737Z,2.33
2018-07-10T07:17:57.542Z,2.40
2018-07-10T07:20:25.234Z,2.83
2018-07-10T07:22:53.403Z,2.40
2018-07-10T07:25:21.105Z,2.17
2018-07-10T07:27:49.171Z,2.53
2018-07-10T07:30:16.992Z,2.63
2018-07-10T07:32:44.699Z,2.23
2018-07-10T07:35:12.489Z,2.37
2018-07-10T07:37:41.037Z,2.63
2018-07-10T07:40:10.377Z,2.50
2018-07-10T07:42:38.491Z,2.70
2018-07-10T07:45:06.440Z,2.30
2018-07-10T07:47:34.197Z,2.40
2018-07-10T07:50:01.966Z,2.43
2018-07-10T07:52:30.723Z,2.40
2018-07-10T07:54:59.874Z,3.10
2018-07-10T07:57:27.603Z,2.60
2018-07-10T07:59:55.325Z,2.47
2018-07-10T08:02:23.495Z,2.30
2018-07-10T08:04:51.564Z,4.00
2018-07-10T08:07:20.486Z,2.70
2018-07-10T08:09:48.926Z,2.33
2018-07-10T08:12:16.671Z,2.33
2018-07-10T08:14:44.962Z,2.50
2018-07-10T08:17:12.971Z,2.30
2018-07-10T08:19:42.014Z,2.03
2018-07-10T08:22:09.753Z,2.67
2018-07-10T08:24:37.559Z,2.70
2018-07-10T08:27:05.181Z,2.30
2018-07-10T08:29:32.849Z,2.37
2018-07-10T08:32:00.545Z,2.07
2018-07-10T08:34:29.302Z,2.90
2018-07-10T08:36:56.981Z,2.50
2018-07-10T08:39:25.039Z,2.73
2018-07-10T08:41:52.808Z,2.93
2018-07-10T08:44:20.770Z,2.20
2018-07-10T08:46:54.007Z,2.00
2018-07-10T08:49:25.336Z,3.00
2018-07-10T08:51:53.061Z,2.10
2018-07-10T08:54:22.805Z,2.60
2018-07-10T08:56:51.322Z,2.50
2018-07-10T08:59:19.346Z,2.30
2018-07-10T09:01:47.603Z,2.87
2018-07-10T09:04:16.440Z,2.67
2018-07-10T09:06:44.293Z,2.30
2018-07-10T09:09:12.042Z,2.30
2018-07-10T09:11:40.574Z,3.07
2018-07-10T09:14:08.483Z,2.63
2018-07-10T09:16:36.207Z,2.37
2018-07-10T09:19:05.322Z,2.70
2018-07-10T09:21:33.009Z,3.03
2018-07-10T09:24:00.714Z,2.70
2018-07-10T09:26:28.422Z,2.60
2018-07-10T09:28:56.518Z,2.87
2018-07-10T09:31:24.215Z,2.43
2018-07-10T09:33:52.008Z,2.53
2018-07-10T09:36:19.663Z,3.27
2018-07-10T09:38:47.386Z,2.43
2018-07-10T09:41:15.120Z,2.33
2018-07-10T09:43:44.398Z,2.43
2018-07-10T09:46:12.384Z,2.17
2018-07-10T09:48:40.079Z,2.30
2018-07-10T09:51:07.847Z,2.40
2018-07-10T09:53:35.606Z,2.43
2018-07-10T09:56:03.294Z,2.77
2018-07-10T09:58:31.926Z,3.43
2018-07-10T10:01:08.247Z,2.53
2018-07-10T10:03:36.826Z,2.30
2018-07-10T10:06:05.290Z,2.37
2018-07-10T10:08:33.028Z,2.50
2018-07-10T10:11:00.829Z,2.93
2018-07-10T10:13:28.569Z,2.93
2018-07-10T10:15:56.256Z,2.80
2018-07-10T10:18:24.134Z,2.30
2018-07-10T10:20:52.609Z,2.73
2018-07-10T10:23:20.314Z,2.40
2018-07-10T10:25:49.217Z,2.30
2018-07-10T10:28:17.658Z,3.00
2018-07-10T10:30:45.386Z,3.27
2018-07-10T10:33:13.082Z,2.70
2018-07-10T10:35:40.885Z,3.07
2018-07-10T10:38:08.634Z,2.50
2018-07-10T10:40:38.665Z,2.40
2018-07-10T10:43:09.115Z,2.90
2018-07-10T10:45:40.674Z,2.33
2018-07-10T10:48:09.096Z,2.77
2018-07-10T10:50:38.608Z,3.37
2018-07-10T10:53:06.778Z,3.20
2018-07-10T10:55:35.109Z,2.90
2018-07-10T10:58:03.270Z,2.73
2018-07-10T11:00:31.318Z,2.87
2018-07-10T11:02:59.142Z,3.70
2018-07-10T11:05:28.005Z,2.77
2018-07-10T11:07:56.233Z,3.03
2018-07-10T11:10:34.717Z,2.87
2018-07-10T11:13:02.558Z,2.50
2018-07-10T11:15:35.071Z,2.60
2018-07-10T11:18:06.978Z,2.60
2018-07-10T11:21:06.782Z,2.23
2018-07-10T11:23:47.338Z,2.70
2018-07-10T11:26:39.688Z,2.10
2018-07-10T11:29:07.691Z,2.33
2018-07-10T11:31:36.043Z,2.27
2018-07-10T11:34:04.319Z,2.13
2018-07-10T11:36:32.022Z,2.70
2018-07-10T11:39:03.996Z,2.83
2018-07-10T11:41:32.130Z,2.50
2018-07-10T11:44:04.903Z,2.63
2018-07-10T11:46:32.642Z,2.83
2018-07-10T11:49:00.862Z,2.87
2018-07-10T11:51:29.304Z,2.90
2018-07-10T11:53:57.033Z,2.40
2018-07-10T11:56:24.749Z,2.57
2018-07-10T11:58:52.515Z,3.20
2018-07-10T12:01:20.217Z,2.40
2018-07-10T12:03:48.181Z,2.10
2018-07-10T12:06:15.903Z,2.20
2018-07-10T12:08:54.705Z,2.33
2018-07-10T12:11:26.974Z,2.60
2018-07-10T12:13:54.715Z,2.47
2018-07-10T12:16:22.430Z,2.80
2018-07-10T12:18:50.139Z,2.30
2018-07-10T12:21:19.166Z,2.30
2018-07-10T12:23:46.922Z,2.60
2018-07-10T12:26:14.671Z,1.90
2018-07-10T12:28:42.433Z,2.37
2018-07-10T12:31:10.230Z,2.10
2018-07-10T12:33:37.998Z,2.40
2018-07-10T12:36:06.215Z,2.20
2018-07-10T12:38:34.013Z,2.30
2018-07-10T12:41:01.840Z,1.93
2018-07-10T12:43:29.554Z,2.13
2018-07-10T12:45:57.330Z,2.03
2018-07-10T12:48:25.105Z,2.90
2018-07-10T12:50:52.831Z,2.43
2018-07-10T12:53:20.516Z,3.10
2018-07-10T12:55:48.299Z,2.50
2018-07-10T12:58:17.519Z,2.57
2018-07-10T13:00:45.202Z,1.77
2018-07-10T13:03:14.459Z,1.97
2018-07-10T13:05:49.580Z,2.33
2018-07-10T13:08:17.887Z,1.97
2018-07-10T13:10:45.856Z,2.07
2018-07-10T13:13:13.962Z,2.30
2018-07-10T13:15:41.773Z,2.03
2018-07-10T13:18:09.552Z,2.27
2018-07-10T13:20:37.433Z,2.17
2018-07-10T13:23:05.199Z,3.43
2018-07-10T13:25:33.011Z,2.30
2018-07-10T13:28:00.682Z,2.53
2018-07-10T13:30:28.690Z,2.17
2018-07-10T13:32:56.419Z,2.10
2018-07-10T13:35:24.298Z,2.10
2018-07-10T13:37:52.294Z,2.10
2018-07-10T13:40:20.114Z,1.50
2018-07-10T13:42:56.118Z,1.93
2018-07-10T13:45:25.022Z,2.07
2018-07-10T13:47:52.851Z,1.80
2018-07-10T13:50:23.659Z,1.80
2018-07-10T13:52:52.149Z,1.93
2018-07-10T13:55:19.864Z,2.67
2018-07-10T13:58:12.814Z,2.27
2018-07-10T14:01:05.002Z,1.87
2018-07-10T14:03:33.115Z,2.20
2018-07-10T14:06:01.003Z,2.00
2018-07-10T14:08:29.069Z,2.50
2018-07-10T14:10:56.794Z,2.20
2018-07-10T14:13:24.595Z,1.97
2018-07-10T14:15:52.313Z,1.80
2018-07-10T14:18:20.078Z,2.07
2018-07-10T14:20:52.449Z,1.93
2018-07-10T14:23:20.427Z,1.23
2018-07-10T14:25:48.671Z,1.50
2018-07-10T14:28:16.473Z,1.77
2018-07-10T14:30:44.150Z,1.90
2018-07-10T14:33:11.854Z,1.37
2018-07-10T14:35:39.537Z,1.40
2018-07-10T14:38:09.182Z,1.80
2018-07-10T14:40:41.041Z,1.40
2018-07-10T14:43:08.802Z,1.73
2018-07-10T14:45:37.610Z,1.67
2018-07-10T14:48:06.101Z,1.47
2018-07-10T14:50:34.070Z,1.67
2018-07-10T14:53:02.399Z,1.53
2018-07-10T14:55:30.070Z,1.53
2018-07-10T14:57:57.826Z,1.60
2018-07-10T15:00:25.703Z,1.77
2018-07-10T15:02:53.394Z,1.23
2018-07-10T15:05:21.185Z,1.43
2018-07-10T15:07:48.933Z,1.40
2018-07-10T15:10:33.874Z,1.57
2018-07-10T15:13:01.570Z,1.40
2018-07-10T15:15:29.331Z,1.47
2018-07-10T15:18:03.062Z,1.40
2018-07-10T15:20:30.759Z,1.30
2018-07-10T15:23:00.283Z,1.10
2018-07-10T15:25:28.061Z,1.30
2018-07-10T15:30:30.319Z,1.47
2018-07-10T15:32:58.893Z,1.30
2018-07-10T15:35:27.249Z,1.07
2018-07-10T15:37:55.186Z,1.70
2018-07-10T15:40:22.936Z,1.57
2018-07-10T15:42:50.787Z,1.10
2018-07-10T15:45:18.589Z,1.30
2018-07-10T15:47:46.267Z,1.10
2018-07-10T15:50:13.969Z,1.20
2018-07-10T15:52:41.744Z,1.43
2018-07-10T15:55:09.429Z,1.20
2018-07-10T15:57:37.134Z,1.40
2018-07-10T16:00:04.929Z,1.17
2018-07-10T16:02:32.655Z,1.20
2018-07-10T16:05:00.396Z,1.50
2018-07-10T16:07:28.474Z,1.40
2018-07-10T16:09:56.207Z,1.50
2018-07-10T16:12:24.135Z,1.50
2018-07-10T16:14:52.734Z,1.43
2018-07-10T16:17:23.641Z,1.03
2018-07-10T16:20:01.990Z,1.60
2018-07-10T16:22:30.007Z,1.40
2018-07-10T16:25:05.295Z,1.13
2018-07-10T16:27:36.763Z,1.20
2018-07-10T16:30:05.043Z,1.37
2018-07-10T16:32:35.637Z,1.20
2018-07-10T16:35:03.387Z,1.20
2018-07-10T16:37:31.103Z,1.60
2018-07-10T16:39:58.969Z,0.93
2018-07-10T16:42:32.567Z,0.90
2018-07-10T16:45:00.366Z,1.40
2018-07-10T16:47:34.070Z,1.17
2018-07-10T16:50:05.620Z,1.20
2018-07-10T16:52:38.226Z,1.30
2018-07-10T16:55:05.942Z,1.47
2018-07-10T16:57:33.908Z,1.20
2018-07-10T17:00:01.600Z,1.20
2018-07-10T17:02:29.298Z,1.50
2018-07-10T17:04:57.622Z,1.00
2018-07-10T17:07:25.391Z,1.30
2018-07-10T17:09:53.138Z,1.50
2018-07-10T17:12:21.389Z,1.50
2018-07-10T17:14:58.874Z,1.63
2018-07-10T17:17:27.555Z,1.70
2018-07-10T17:19:55.626Z,1.70
2018-07-10T17:22:23.907Z,1.70
2018-07-10T17:24:52.389Z,1.40
2018-07-10T17:27:33.127Z,1.40
2018-07-10T17:30:02.071Z,1.37
2018-07-10T17:32:30.490Z,1.90
2018-07-10T17:34:58.599Z,1.70
2018-07-10T17:37:26.523Z,2.17
2018-07-10T17:39:55.637Z,1.47
2018-07-10T17:42:23.345Z,1.23
2018-07-10T17:44:51.064Z,1.30
2018-07-10T17:47:18.966Z,1.17
2018-07-10T17:49:46.666Z,1.00
2018-07-10T17:52:14.413Z,0.87
2018-07-10T17:54:42.095Z,1.33
2018-07-10T17:57:09.782Z,1.27
2018-07-10T17:59:38.997Z,1.50
2018-07-10T18:02:06.798Z,1.40
2018-07-10T18:04:34.489Z,1.53
2018-07-10T18:07:02.190Z,1.27
2018-07-10T18:09:29.887Z,1.30
2018-07-10T18:11:57.621Z,0.90
2018-07-10T18:14:25.527Z,1.10
2018-07-10T18:16:53.356Z,1.30
2018-07-10T18:19:21.853Z,1.10
2018-07-10T18:21:49.569Z,1.10
2018-07-10T18:24:17.499Z,1.00
2018-07-10T18:26:45.192Z,1.00
2018-07-10T18:29:12.884Z,1.20
2018-07-10T18:31:40.659Z,1.00
2018-07-10T18:34:08.366Z,0.93
2018-07-10T18:36:36.091Z,1.10
2018-07-10T18:39:03.901Z,1.00
2018-07-10T18:41:31.690Z,1.00
2018-07-10T18:43:59.909Z,1.00
2018-07-10T18:46:28.162Z,0.97
2018-07-10T18:48:55.955Z,1.30
2018-07-10T18:51:24.463Z,1.23
2018-07-10T18:53:52.574Z,1.20
2018-07-10T18:56:21.342Z,0.80
2018-07-10T18:59:10.329Z,1.20
2018-07-10T19:02:13.386Z,1.37
2018-07-10T19:04:56.542Z,1.13
2018-07-10T19:07:24.282Z,1.10
2018-07-10T19:09:52.013Z,1.13
2018-07-10T19:12:23.515Z,0.87
2018-07-10T19:14:51.310Z,1.00
2018-07-10T19:17:26.274Z,1.00
2018-07-10T19:20:05.497Z,1.23
2018-07-10T19:23:14.811Z,0.83
2018-07-10T19:25:42.649Z,1.03
2018-07-10T19:28:11.588Z,1.33
2018-07-10T19:30:47.646Z,1.10
2018-07-10T19:33:15.507Z,1.10
2018-07-10T19:35:43.385Z,1.00
2018-07-10T19:38:11.311Z,1.10
2018-07-10T19:40:39.139Z,1.00
2018-07-10T19:43:07.067Z,1.30
2018-07-10T19:45:35.558Z,1.47
2018-07-10T19:48:04.649Z,1.00
2018-07-10T19:50:38.750Z,1.03
2018-07-10T19:53:06.654Z,1.60
2018-07-10T19:55:38.199Z,1.03
2018-07-10T19:58:47.566Z,1.23
2018-07-10T20:02:01.697Z,1.10
2018-07-10T20:04:40.208Z,1.00
2018-07-10T20:07:11.861Z,1.10
2018-07-10T20:10:56.864Z,1.13
2018-07-10T20:13:46.294Z,0.83
2018-07-10T20:16:57.567Z,0.90
2018-07-10T20:19:45.968Z,1.33
2018-07-10T20:22:17.767Z,1.37
2018-07-10T20:24:56.905Z,1.13
2018-07-10T20:27:37.017Z,1.27
2018-07-10T20:30:28.200Z,1.23
2018-07-10T20:33:12.575Z,0.90
2018-07-10T20:35:46.651Z,0.97
2018-07-10T20:38:14.679Z,1.00
2018-07-10T20:40:43.507Z,1.00
2018-07-10T20:43:15.638Z,1.20
2018-07-10T20:45:48.168Z,1.20
2018-07-10T20:48:32.302Z,1.20
2018-07-10T20:51:06.953Z,1.10
2018-07-10T20:54:49.566Z,1.40
2018-07-10T20:58:22.555Z,1.27
2018-07-10T21:01:02.050Z,0.93
2018-07-10T21:03:55.441Z,1.20
2018-07-10T21:07:03.537Z,1.20
2018-07-10T21:09:48.794Z,1.13
2018-07-10T21:12:22.274Z,0.90
2018-07-10T21:15:06.605Z,1.10
2018-07-10T21:18:40.846Z,1.30
2018-07-10T21:21:23.633Z,1.20
2018-07-10T21:24:03.766Z,1.20
2018-07-10T21:26:42.087Z,1.33
2018-07-10T21:29:27.027Z,1.17
2018-07-10T21:32:03.482Z,1.23
2018-07-10T21:34:43.486Z,1.60
2018-07-10T21:38:26.806Z,1.40
2018-07-10T21:41:08.594Z,1.40
2018-07-10T21:43:50.838Z,1.60
2018-07-10T21:49:26.601Z,1.43
2018-07-10T21:51:54.291Z,1.40
2018-07-10T21:54:22.007Z,1.63
2018-07-10T21:56:49.725Z,1.30
2018-07-10T21:59:19.424Z,1.40
2018-07-10T22:02:10.779Z,1.63
2018-07-10T22:04:39.302Z,1.63
2018-07-10T22:07:11.126Z,1.13
2018-07-10T22:09:39.655Z,1.80
2018-07-10T22:12:11.465Z,1.80
2018-07-10T22:14:40.007Z,1.40
2018-07-10T22:17:20.991Z,1.30
2018-07-10T22:19:50.621Z,1.60
2018-07-10T22:22:21.954Z,1.53
2018-07-10T22:24:50.731Z,1.80
2018-07-10T22:27:18.980Z,1.50
2018-07-10T22:29:52.778Z,1.83
2018-07-10T22:32:29.027Z,2.10
2018-07-10T22:34:56.794Z,1.90
2018-07-10T22:37:24.581Z,1.83
2018-07-10T22:39:52.264Z,1.67
2018-07-10T22:42:19.966Z,1.40
2018-07-10T22:44:50.033Z,1.63
2018-07-10T22:47:41.190Z,1.83
2018-07-10T22:50:19.582Z,1.77
2018-07-10T22:52:54.253Z,1.60
2018-07-10T22:55:26.629Z,1.90
2018-07-10T22:57:58.082Z,1.50
2018-07-10T23:00:30.659Z,1.70
2018-07-10T23:02:59.131Z,1.63
2018-07-10T23:05:27.199Z,1.70
2018-07-10T23:07:54.903Z,1.70
2018-07-10T23:10:34.077Z,1.70
2018-07-10T23:13:01.766Z,1.90
2018-07-10T23:15:29.486Z,1.50
2018-07-10T23:17:57.177Z,2.00
2018-07-10T23:20:24.959Z,1.70
2018-07-10T23:22:54.625Z,1.77
2018-07-10T23:25:24.331Z,1.73
2018-07-10T23:27:56.766Z,1.50
2018-07-10T23:30:25.286Z,1.57
2018-07-10T23:32:53.549Z,1.63
2018-07-10T23:35:21.215Z,1.47
2018-07-10T23:37:55.654Z,1.87
2018-07-10T23:40:23.377Z,1.80
2018-07-10T23:42:52.254Z,2.00
2018-07-10T23:45:26.343Z,1.70
2018-07-10T23:47:56.886Z,1.80
2018-07-10T23:50:27.391Z,1.87
2018-07-10T23:53:44.695Z,1.87
2018-07-10T23:56:12.397Z,1.70
2018-07-10T23:58:40.198Z,1.90
